createdAt,value
2023-04-19T00:02:22.946Z,6.81
2023-04-19T00:05:08.465Z,6.61
2023-04-19T00:07:54.159Z,6.53
2023-04-19T00:10:39.868Z,6.50
2023-04-19T00:13:25.262Z,6.67
2023-04-19T00:16:10.386Z,6.58
2023-04-19T00:18:55.320Z,6.58
2023-04-19T00:21:40.418Z,6.46
2023-04-19T00:24:25.619Z,6.24
2023-04-19T00:27:10.781Z,6.25
2023-04-19T00:29:57.245Z,6.23
2023-04-19T00:32:42.414Z,6.23
2023-04-19T00:35:27.468Z,6.12
2023-04-19T00:38:12.942Z,6.06
2023-04-19T00:40:58.953Z,6.06
2023-04-19T00:43:44.272Z,6.08
2023-04-19T00:46:29.954Z,5.97
2023-04-19T00:49:15.642Z,5.92
2023-04-19T00:52:00.835Z,5.76
2023-04-19T00:54:45.838Z,5.75
2023-04-19T00:57:31.704Z,5.76
2023-04-19T01:00:16.824Z,5.67
2023-04-19T01:03:01.942Z,5.75
2023-04-19T01:05:48.467Z,5.93
2023-04-19T01:08:33.856Z,5.84
2023-04-19T01:11:18.739Z,5.72
2023-04-19T01:14:04.022Z,5.63
2023-04-19T01:16:50.532Z,5.90
2023-04-19T01:19:37.288Z,6.01
2023-04-19T01:22:25.010Z,5.50
2023-04-19T01:25:11.324Z,5.84
2023-04-19T01:27:56.262Z,5.79
2023-04-19T01:30:41.254Z,5.71
2023-04-19T01:33:26.715Z,5.60
2023-04-19T01:36:12.922Z,5.68
2023-04-19T01:38:57.733Z,5.63
2023-04-19T01:41:42.475Z,5.61
2023-04-19T01:44:27.609Z,5.32
2023-04-19T01:47:12.588Z,5.60
2023-04-19T01:49:57.833Z,5.21
2023-04-19T01:52:42.611Z,5.33
2023-04-19T01:55:28.069Z,5.23
2023-04-19T01:58:12.840Z,5.36
2023-04-19T02:00:58.041Z,5.32
2023-04-19T02:03:44.071Z,5.23
2023-04-19T02:06:29.351Z,5.28
2023-04-19T02:09:14.538Z,5.14
2023-04-19T02:11:59.199Z,5.04
2023-04-19T02:14:44.605Z,4.93
2023-04-19T02:17:30.089Z,4.94
2023-04-19T02:20:15.152Z,5.01
2023-04-19T02:23:00.068Z,5.07
2023-04-19T02:25:45.982Z,4.89
2023-04-19T02:28:51.493Z,5.02
2023-04-19T02:31:36.806Z,4.98
2023-04-19T02:34:21.695Z,4.94
2023-04-19T02:37:07.126Z,4.97
2023-04-19T02:39:51.907Z,4.98
2023-04-19T02:42:37.257Z,5.08
2023-04-19T02:45:23.178Z,4.84
2023-04-19T02:48:08.325Z,4.92
2023-04-19T02:50:53.320Z,4.83
2023-04-19T02:53:38.536Z,4.70
2023-04-19T02:56:23.899Z,4.83
2023-04-19T02:59:08.742Z,4.77
2023-04-19T03:01:53.809Z,5.00
2023-04-19T03:04:38.555Z,5.14
2023-04-19T03:07:23.562Z,4.93
2023-04-19T03:10:09.177Z,4.76
2023-04-19T03:12:54.331Z,4.82
2023-04-19T03:15:39.243Z,4.85
2023-04-19T03:18:24.222Z,4.67
2023-04-19T03:21:09.906Z,4.63
2023-04-19T03:23:57.811Z,4.61
2023-04-19T03:26:42.889Z,4.58
2023-04-19T03:29:27.847Z,4.60
2023-04-19T03:32:13.046Z,4.51
2023-04-19T03:34:57.853Z,4.55
2023-04-19T03:37:43.403Z,4.59
2023-04-19T03:40:28.343Z,4.57
2023-04-19T03:43:13.159Z,4.44
2023-04-19T03:45:58.514Z,4.46
2023-04-19T03:48:43.348Z,4.44
2023-04-19T03:51:28.571Z,4.67
2023-04-19T03:54:13.400Z,4.48
2023-04-19T03:56:58.895Z,4.48
2023-04-19T03:59:44.017Z,4.21
2023-04-19T04:02:28.804Z,4.46
2023-04-19T04:05:14.166Z,4.41
2023-04-19T04:07:59.525Z,4.67
2023-04-19T04:10:44.393Z,4.49
2023-04-19T04:13:30.431Z,4.46
2023-04-19T04:16:15.320Z,4.31
2023-04-19T04:19:00.269Z,4.31
2023-04-19T04:21:45.775Z,4.60
2023-04-19T04:24:32.812Z,4.39
2023-04-19T04:27:21.579Z,4.31
2023-04-19T04:30:06.969Z,4.61
2023-04-19T04:32:52.416Z,4.74
2023-04-19T04:35:38.445Z,4.82
2023-04-19T04:38:25.244Z,4.80
2023-04-19T04:41:12.002Z,4.98
2023-04-19T04:44:12.099Z,5.05
2023-04-19T04:46:58.025Z,4.96
2023-04-19T04:49:43.427Z,4.98
2023-04-19T04:52:28.964Z,4.89
2023-04-19T04:55:13.996Z,5.27
2023-04-19T04:57:58.851Z,5.14
2023-04-19T05:00:43.614Z,4.93
2023-04-19T05:03:29.178Z,4.83
2023-04-19T05:06:14.767Z,4.84
2023-04-19T05:08:59.879Z,4.94
2023-04-19T05:11:44.832Z,4.98
2023-04-19T05:14:29.849Z,4.94
2023-04-19T05:17:15.063Z,5.07
2023-04-19T05:20:01.243Z,4.85
2023-04-19T05:22:46.708Z,5.02
2023-04-19T05:25:33.352Z,5.09
2023-04-19T05:28:18.333Z,5.20
2023-04-19T05:31:03.993Z,5.24
2023-04-19T05:33:48.991Z,5.15
2023-04-19T05:36:33.953Z,5.30
2023-04-19T05:39:18.676Z,5.25
2023-04-19T05:42:04.037Z,5.36
2023-04-19T05:44:49.177Z,5.53
2023-04-19T05:47:34.184Z,5.64
2023-04-19T05:50:20.527Z,5.57
2023-04-19T05:53:05.458Z,5.69
2023-04-19T05:55:52.372Z,5.91
2023-04-19T05:58:37.437Z,5.87
2023-04-19T06:01:24.361Z,5.98
2023-04-19T06:04:09.546Z,6.01
2023-04-19T06:06:54.919Z,6.05
2023-04-19T06:09:39.674Z,6.15
2023-04-19T06:12:25.625Z,6.37
2023-04-19T06:15:11.715Z,6.55
2023-04-19T06:17:59.833Z,6.47
2023-04-19T06:20:45.001Z,6.45
2023-04-19T06:23:30.123Z,6.65
2023-04-19T06:26:15.400Z,6.75
2023-04-19T06:29:00.333Z,6.85
2023-04-19T06:31:46.564Z,7.00
2023-04-19T06:34:31.472Z,7.04
2023-04-19T06:37:16.646Z,7.10
2023-04-19T06:40:01.588Z,7.15
2023-04-19T06:42:47.043Z,7.23
2023-04-19T06:45:32.027Z,7.23
2023-04-19T06:48:17.159Z,7.45
2023-04-19T06:51:02.732Z,7.49
2023-04-19T06:53:47.561Z,7.64
2023-04-19T06:56:47.525Z,7.77
2023-04-19T06:59:33.415Z,7.92
2023-04-19T07:02:18.693Z,8.08
2023-04-19T07:05:03.849Z,8.27
2023-04-19T07:07:49.803Z,8.39
2023-04-19T07:10:34.649Z,8.60
2023-04-19T07:13:20.237Z,8.77
2023-04-19T07:16:05.772Z,8.85
2023-04-19T07:18:51.298Z,8.63
2023-04-19T07:21:38.651Z,8.79
2023-04-19T07:24:23.555Z,8.76
2023-04-19T07:27:08.484Z,8.85
2023-04-19T07:29:53.434Z,9.13
2023-04-19T07:32:38.750Z,9.11
2023-04-19T07:35:23.936Z,9.26
2023-04-19T07:38:08.882Z,9.49
2023-04-19T07:40:53.726Z,9.52
2023-04-19T07:43:39.931Z,9.72
2023-04-19T07:46:25.585Z,10.00
2023-04-19T07:49:10.456Z,9.92
2023-04-19T07:51:55.449Z,9.86
2023-04-19T07:54:40.385Z,10.03
2023-04-19T07:57:25.342Z,10.06
2023-04-19T08:00:10.842Z,10.18
2023-04-19T08:02:57.146Z,10.17
2023-04-19T08:05:42.270Z,10.41
2023-04-19T08:08:27.524Z,10.43
2023-04-19T08:11:12.257Z,10.49
2023-04-19T08:19:33.376Z,10.84
2023-04-19T08:22:19.744Z,11.02
2023-04-19T08:25:06.554Z,10.87
2023-04-19T08:27:51.653Z,10.83
2023-04-19T08:30:36.568Z,10.86
2023-04-19T08:33:21.673Z,10.94
2023-04-19T08:36:07.535Z,11.01
2023-04-19T08:39:04.262Z,11.17
2023-04-19T08:41:59.348Z,11.08
2023-04-19T08:45:13.197Z,11.20
2023-04-19T08:48:01.216Z,11.27
2023-04-19T08:51:01.259Z,11.33
2023-04-19T08:53:50.256Z,11.51
2023-04-19T08:56:36.073Z,11.42
2023-04-19T08:59:21.450Z,11.59
2023-04-19T09:02:07.194Z,11.88
2023-04-19T09:04:52.766Z,11.91
2023-04-19T09:07:38.422Z,12.09
2023-04-19T09:10:24.574Z,12.25
2023-04-19T09:13:09.648Z,12.31
2023-04-19T09:15:57.079Z,12.46
2023-04-19T09:19:02.388Z,12.51
2023-04-19T09:21:55.173Z,12.23
2023-04-19T09:27:33.895Z,12.67
2023-04-19T09:30:31.445Z,12.74
2023-04-19T09:33:41.086Z,13.04
2023-04-19T09:36:28.397Z,13.32
2023-04-19T09:39:14.470Z,13.80
2023-04-19T09:42:00.588Z,13.44
2023-04-19T09:48:00.723Z,13.65
2023-04-19T09:51:05.816Z,13.68
2023-04-19T09:53:54.318Z,13.62
2023-04-19T09:56:40.046Z,13.53
2023-04-19T09:59:25.282Z,13.37
2023-04-19T10:02:12.963Z,13.24
2023-04-19T10:05:16.284Z,13.34
2023-04-19T10:08:04.777Z,13.55
2023-04-19T10:10:54.777Z,13.39
2023-04-19T10:13:41.348Z,13.55
2023-04-19T10:16:26.516Z,13.72
2023-04-19T10:19:15.228Z,13.38
2023-04-19T10:22:00.449Z,13.90
2023-04-19T10:25:08.539Z,13.70
2023-04-19T10:27:53.574Z,13.85
2023-04-19T10:30:59.787Z,13.62
2023-04-19T10:33:44.730Z,13.76
2023-04-19T10:36:29.405Z,14.11
2023-04-19T10:39:39.256Z,14.10
2023-04-19T10:42:23.923Z,14.30
2023-04-19T10:45:34.718Z,14.29
2023-04-19T10:48:34.949Z,14.40
2023-04-19T10:51:28.296Z,14.63
2023-04-19T10:54:28.650Z,14.59
2023-04-19T10:57:13.488Z,14.85
2023-04-19T11:00:25.579Z,14.51
2023-04-19T11:03:45.358Z,14.38
2023-04-19T11:06:30.809Z,14.61
2023-04-19T11:09:25.215Z,14.72
2023-04-19T11:12:15.351Z,14.67
2023-04-19T11:15:00.425Z,14.68
2023-04-19T11:18:01.034Z,15.22
2023-04-19T11:20:53.172Z,15.18
2023-04-19T11:23:38.750Z,14.52
2023-04-19T11:26:23.793Z,14.65
2023-04-19T11:29:09.586Z,15.00
2023-04-19T11:31:54.685Z,15.34
2023-04-19T11:34:40.937Z,15.59
2023-04-19T11:37:31.993Z,15.89
2023-04-19T11:40:22.700Z,15.65
2023-04-19T11:43:07.488Z,14.94
2023-04-19T11:45:53.203Z,14.95
2023-04-19T11:48:39.539Z,15.33
2023-04-19T11:51:26.960Z,15.57
2023-04-19T11:54:17.251Z,15.75
2023-04-19T11:57:07.782Z,16.01
2023-04-19T12:00:12.312Z,15.08
2023-04-19T12:02:59.524Z,14.45
2023-04-19T12:05:56.147Z,14.88
2023-04-19T12:08:47.133Z,15.07
2023-04-19T12:11:46.923Z,15.54
2023-04-19T12:14:31.846Z,15.84
2023-04-19T12:17:17.012Z,15.35
2023-04-19T12:20:01.853Z,15.39
2023-04-19T12:22:49.194Z,15.08
2023-04-19T12:25:36.564Z,15.60
2023-04-19T12:28:22.979Z,16.04
2023-04-19T12:31:08.632Z,15.65
2023-04-19T12:33:56.032Z,14.92
2023-04-19T12:36:41.095Z,14.64
2023-04-19T12:39:26.466Z,14.20
2023-04-19T12:42:12.378Z,14.28
2023-04-19T12:44:57.639Z,15.05
2023-04-19T12:47:43.776Z,15.49
2023-04-19T12:50:29.319Z,15.54
2023-04-19T12:53:14.222Z,15.33
2023-04-19T12:55:59.810Z,14.91
2023-04-19T12:58:44.810Z,15.40
2023-04-19T13:01:30.111Z,15.44
2023-04-19T13:04:15.228Z,14.77
2023-04-19T13:07:01.616Z,13.90
2023-04-19T13:09:46.379Z,14.10
2023-04-19T13:12:31.727Z,15.13
2023-04-19T13:15:17.211Z,14.61
2023-04-19T13:18:02.544Z,14.11
2023-04-19T13:20:48.417Z,14.92
2023-04-19T13:23:34.070Z,14.85
2023-04-19T13:26:19.184Z,14.31
2023-04-19T13:29:05.887Z,14.17
2023-04-19T13:31:51.201Z,14.06
2023-04-19T13:34:37.269Z,13.86
2023-04-19T13:37:23.698Z,13.63
2023-04-19T13:40:21.130Z,13.91
2023-04-19T13:43:06.734Z,13.68
2023-04-19T13:45:52.013Z,13.36
2023-04-19T13:48:36.770Z,13.31
2023-04-19T13:51:21.705Z,14.10
2023-04-19T13:54:06.487Z,14.27
2023-04-19T13:56:52.489Z,13.84
2023-04-19T13:59:38.113Z,13.41
2023-04-19T14:02:23.414Z,13.99
2023-04-19T14:05:09.684Z,14.74
2023-04-19T14:07:54.464Z,15.04
2023-04-19T14:10:40.917Z,14.96
2023-04-19T14:13:28.857Z,14.43
2023-04-19T14:16:14.721Z,14.56
2023-04-19T14:19:01.869Z,14.44
2023-04-19T14:21:47.454Z,14.85
2023-04-19T14:24:32.281Z,14.39
2023-04-19T14:27:17.756Z,13.73
2023-04-19T14:30:05.008Z,13.35
2023-04-19T14:32:50.451Z,13.24
2023-04-19T14:35:35.527Z,14.08
2023-04-19T14:38:21.126Z,14.95
2023-04-19T14:41:06.101Z,14.21
2023-04-19T14:43:51.824Z,14.59
2023-04-19T14:46:36.606Z,14.77
2023-04-19T14:49:21.526Z,13.89
2023-04-19T14:52:06.479Z,13.45
2023-04-19T14:54:51.728Z,13.65
2023-04-19T14:57:36.504Z,13.66
2023-04-19T15:00:21.707Z,13.44
2023-04-19T15:03:06.932Z,14.11
2023-04-19T15:05:53.449Z,14.66
2023-04-19T15:08:38.649Z,15.32
2023-04-19T15:11:24.075Z,15.35
2023-04-19T15:14:10.376Z,15.80
2023-04-19T15:16:55.408Z,15.69
2023-04-19T15:19:40.386Z,15.44
2023-04-19T15:22:26.259Z,15.48
2023-04-19T15:25:11.434Z,15.66
2023-04-19T15:27:56.758Z,15.38
2023-04-19T15:30:41.856Z,15.25
2023-04-19T15:33:27.163Z,15.36
2023-04-19T15:36:13.765Z,15.39
2023-04-19T15:38:59.476Z,15.47
2023-04-19T15:41:44.672Z,15.38
2023-04-19T15:44:29.918Z,15.64
2023-04-19T15:47:15.089Z,15.30
2023-04-19T15:50:01.698Z,15.08
2023-04-19T15:52:47.711Z,15.02
2023-04-19T15:55:33.779Z,14.65
2023-04-19T15:58:19.363Z,14.18
2023-04-19T16:01:07.814Z,13.83
2023-04-19T16:03:57.491Z,13.62
2023-04-19T16:06:42.436Z,13.17
2023-04-19T16:09:27.337Z,13.25
2023-04-19T16:12:12.628Z,13.25
2023-04-19T16:14:58.139Z,13.44
2023-04-19T16:17:43.422Z,13.45
2023-04-19T16:20:29.213Z,13.59
2023-04-19T16:23:14.865Z,13.79
2023-04-19T16:25:59.756Z,14.03
2023-04-19T16:28:44.624Z,14.57
2023-04-19T16:31:29.669Z,15.03
2023-04-19T16:34:15.361Z,14.54
2023-04-19T16:37:01.139Z,13.77
2023-04-19T16:39:46.090Z,13.27
2023-04-19T16:42:31.570Z,12.88
2023-04-19T16:45:19.692Z,12.44
2023-04-19T16:48:05.157Z,12.29
2023-04-19T16:50:49.898Z,12.31
2023-04-19T16:53:35.121Z,12.19
2023-04-19T16:56:19.960Z,12.23
2023-04-19T16:59:05.402Z,12.17
2023-04-19T17:01:51.280Z,12.19
2023-04-19T17:04:37.763Z,12.13
2023-04-19T17:07:24.437Z,12.10
2023-04-19T17:10:09.658Z,11.99
2023-04-19T17:12:55.391Z,12.15
2023-04-19T17:15:40.902Z,12.14
2023-04-19T17:18:26.495Z,11.97
2023-04-19T17:21:13.013Z,11.87
2023-04-19T17:23:58.828Z,11.93
2023-04-19T17:26:44.191Z,11.60
2023-04-19T17:29:32.550Z,11.55
2023-04-19T17:32:17.791Z,11.62
2023-04-19T17:35:04.016Z,11.34
2023-04-19T17:37:49.007Z,11.25
2023-04-19T17:40:34.220Z,11.21
2023-04-19T17:43:21.119Z,11.11
2023-04-19T17:46:06.162Z,11.18
2023-04-19T17:48:53.213Z,10.96
2023-04-19T17:51:40.172Z,10.87
2023-04-19T17:54:25.561Z,10.71
2023-04-19T17:57:10.554Z,10.75
2023-04-19T17:59:56.158Z,10.65
2023-04-19T18:02:44.567Z,10.58
2023-04-19T18:05:29.555Z,10.52
2023-04-19T18:08:14.404Z,10.46
2023-04-19T18:11:01.948Z,10.25
2023-04-19T18:13:47.159Z,10.11
2023-04-19T18:16:32.796Z,10.04
2023-04-19T18:19:18.279Z,9.99
2023-04-19T18:22:07.747Z,9.94
2023-04-19T18:24:58.424Z,9.75
2023-04-19T18:27:44.041Z,9.45
2023-04-19T18:30:30.856Z,9.15
2023-04-19T18:33:15.806Z,8.97
2023-04-19T18:36:01.943Z,8.84
2023-04-19T18:38:49.099Z,8.87
2023-04-19T18:41:34.807Z,9.02
2023-04-19T18:44:44.191Z,8.96
2023-04-19T18:47:27.747Z,8.85
2023-04-19T18:50:15.430Z,8.72
2023-04-19T18:53:05.175Z,8.52
2023-04-19T18:55:53.004Z,8.19
2023-04-19T18:58:38.336Z,8.20
2023-04-19T19:01:23.338Z,8.16
2023-04-19T19:07:10.898Z,8.10
2023-04-19T19:10:16.727Z,8.06
2023-04-19T19:13:13.667Z,7.84
2023-04-19T19:15:59.030Z,7.79
2023-04-19T19:18:45.554Z,7.63
2023-04-19T19:21:33.845Z,7.66
2023-04-19T19:24:18.607Z,7.58
2023-04-19T19:27:04.910Z,7.64
2023-04-19T19:29:50.238Z,7.67
2023-04-19T19:32:36.033Z,7.94
2023-04-19T19:35:21.536Z,7.95
2023-04-19T19:38:07.054Z,7.78
2023-04-19T19:41:31.007Z,7.72
2023-04-19T19:43:57.531Z,7.46
2023-04-19T19:46:46.826Z,7.13
2023-04-19T19:52:20.470Z,7.02
2023-04-19T19:55:06.169Z,7.10
2023-04-19T20:00:46.958Z,7.15
2023-04-19T20:03:37.684Z,7.12
2023-04-19T20:09:14.520Z,7.14
2023-04-19T20:12:00.213Z,7.29
2023-04-19T20:14:45.220Z,7.19
2023-04-19T20:17:33.345Z,7.28
2023-04-19T20:20:18.398Z,7.23
2023-04-19T20:23:03.717Z,7.39
2023-04-19T20:25:51.438Z,7.50
2023-04-19T20:28:38.227Z,7.38
2023-04-19T20:31:24.071Z,7.54
2023-04-19T20:34:09.924Z,7.44
2023-04-19T20:36:55.651Z,7.57
2023-04-19T20:39:41.371Z,7.49
2023-04-19T20:42:26.710Z,7.55
2023-04-19T20:45:12.836Z,7.49
2023-04-19T20:47:58.578Z,7.50
2023-04-19T20:50:43.785Z,7.49
2023-04-19T20:53:28.915Z,7.55
2023-04-19T20:56:15.840Z,7.48
2023-04-19T20:59:00.920Z,7.48
2023-04-19T21:01:46.817Z,7.39
2023-04-19T21:04:33.155Z,7.43
2023-04-19T21:07:18.395Z,7.39
2023-04-19T21:10:05.795Z,7.42
2023-04-19T21:12:51.023Z,7.41
2023-04-19T21:15:36.890Z,7.30
2023-04-19T21:18:25.844Z,7.30
2023-04-19T21:21:10.795Z,7.28
2023-04-19T21:23:56.553Z,7.27
2023-04-19T21:26:41.803Z,7.31
2023-04-19T21:29:27.049Z,7.33
2023-04-19T21:32:11.957Z,7.29
2023-04-19T21:34:57.019Z,7.26
2023-04-19T21:37:42.051Z,7.36
2023-04-19T21:40:27.298Z,7.31
2023-04-19T21:43:12.370Z,7.26
2023-04-19T21:45:57.503Z,7.30
2023-04-19T21:48:42.258Z,7.20
2023-04-19T21:51:27.800Z,7.14
2023-04-19T21:54:17.867Z,7.12
2023-04-19T21:57:11.083Z,6.89
2023-04-19T21:59:56.094Z,6.81
2023-04-19T22:02:41.755Z,6.61
2023-04-19T22:05:26.958Z,6.53
2023-04-19T22:08:13.652Z,6.69
2023-04-19T22:11:00.191Z,6.53
2023-04-19T22:13:46.419Z,6.47
2023-04-19T22:16:32.772Z,6.27
2023-04-19T22:19:18.186Z,6.16
2023-04-19T22:22:03.852Z,6.04
2023-04-19T22:24:57.583Z,5.94
2023-04-19T22:27:43.398Z,5.89
2023-04-19T22:30:28.711Z,5.88
2023-04-19T22:33:13.648Z,5.88
2023-04-19T22:35:58.564Z,5.81
2023-04-19T22:38:43.782Z,5.77
2023-04-19T22:41:29.148Z,5.64
2023-04-19T22:44:14.013Z,5.59
2023-04-19T22:46:59.874Z,5.50
2023-04-19T22:49:45.139Z,5.48
2023-04-19T22:52:30.864Z,5.43
2023-04-19T22:55:15.697Z,5.44
2023-04-19T22:58:00.654Z,5.44
2023-04-19T23:00:45.855Z,5.49
2023-04-19T23:03:30.814Z,5.41
2023-04-19T23:06:18.152Z,5.44
2023-04-19T23:09:03.450Z,5.51
2023-04-19T23:11:49.132Z,5.41
2023-04-19T23:14:34.330Z,5.31
2023-04-19T23:17:20.170Z,5.36
2023-04-19T23:20:11.021Z,5.40
2023-04-19T23:22:57.443Z,5.32
2023-04-19T23:25:42.596Z,5.24
2023-04-19T23:28:27.943Z,5.21
2023-04-19T23:31:13.123Z,5.10
2023-04-19T23:33:58.234Z,5.07
2023-04-19T23:36:43.237Z,5.26
2023-04-19T23:39:28.288Z,5.24
2023-04-19T23:42:13.512Z,5.48
2023-04-19T23:44:58.104Z,5.37
2023-04-19T23:47:42.965Z,5.41
2023-04-19T23:50:27.893Z,5.57
2023-04-19T23:53:13.369Z,5.38
2023-04-19T23:55:58.268Z,5.52
2023-04-19T23:58:43.508Z,5.59
